Magnetawan, Canada
Current Conditions -  °F | °C
As of 12:00 AM on Thursday 23 Oct 2014 (Local Time) from CYYB Reporting Station
Clear Clear  
Wind Chill: 39°   Ceiling: Unl
Heat Index: 43°   Visibility: 9mi
Dew Point: 30°   Wind: 7mph
Humidity: 61%   Direction: 70°ENE
Pressure: 30.27"   Gusts: NA
Location:  45.67°N, 79.63°W
Report Text: CYYB 230400Z AUTO 07006KT 9SM CLR 06/M01 A3027 RMK SLP263
Loading
Personal Weather Stations






























Interactive Weather Map
Tropical Storm Tracking
New forecast layout! Learn more

10-Day Weather Forecast

Advertisements
Track Severe Weather on mobile